Time,TemperatureF,DewpointF,PressureIn,WindDirection,WindDirectionDegrees,WindSpeedMPH,WindSpeedGustMPH,Humidity,HourlyPrecipIn,Conditions,Clouds,dailyrainin,SoftwareType,DateUTC
2013-02-05 00:01:00,16.8,14.6,29.96,SE,141,0.0,0.0,91,0.00,,,0.00,Wunderground v.1.15,2013-02-05 05:01:00,
2013-02-05 00:04:00,16.8,14.4,29.95,SE,141,0.0,0.0,90,0.00,,,0.00,Wunderground v.1.15,2013-02-05 05:04:00,
2013-02-05 00:07:00,16.8,14.4,29.95,SE,141,0.0,0.0,90,0.00,,,0.00,Wunderground v.1.15,2013-02-05 05:07:00,
2013-02-05 00:12:00,16.8,14.6,29.95,SE,141,0.0,0.0,91,0.00,,,0.00,Wunderground v.1.15,2013-02-05 05:12:00,
2013-02-05 00:17:00,16.8,14.6,29.95,SE,141,0.0,0.0,91,0.00,,,0.00,Wunderground v.1.15,2013-02-05 05:17:00,
2013-02-05 00:23:00,16.8,14.6,29.95,SE,141,0.0,0.0,91,0.00,,,0.00,Wunderground v.1.15,2013-02-05 05:23:00,
2013-02-05 00:29:00,16.8,14.6,29.95,SE,141,0.0,0.0,91,0.00,,,0.00,Wunderground v.1.15,2013-02-05 05:29:00,
2013-02-05 00:36:00,16.8,14.6,29.94,SE,141,0.0,0.0,91,0.00,,,0.00,Wunderground v.1.15,2013-02-05 05:36:00,
2013-02-05 00:41:00,16.8,14.6,29.94,SE,141,0.0,0.0,91,0.00,,,0.00,Wunderground v.1.15,2013-02-05 05:41:00,
2013-02-05 00:47:00,16.8,14.6,29.94,SE,141,0.0,0.0,91,0.00,,,0.00,Wunderground v.1.15,2013-02-05 05:47:00,
2013-02-05 00:52:00,16.8,14.6,29.94,SE,141,0.0,0.0,91,0.00,,,0.00,Wunderground v.1.15,2013-02-05 05:52:00,
2013-02-05 00:58:00,16.8,14.6,29.94,SE,141,0.0,0.0,91,0.00,,,0.00,Wunderground v.1.15,2013-02-05 05:58:00,
2013-02-05 01:04:00,16.8,14.4,29.94,SE,141,0.0,0.0,90,0.00,,,0.00,Wunderground v.1.15,2013-02-05 06:04:00,
2013-02-05 01:10:00,16.8,14.4,29.94,SE,141,0.0,0.0,90,0.00,,,0.00,Wunderground v.1.15,2013-02-05 06:10:00,
2013-02-05 01:15:00,16.8,14.4,29.94,SE,141,0.0,0.0,90,0.00,,,0.00,Wunderground v.1.15,2013-02-05 06:15:00,
2013-02-05 01:20:00,16.8,14.4,29.94,SE,141,0.0,0.0,90,0.00,,,0.00,Wunderground v.1.15,2013-02-05 06:20:00,
2013-02-05 01:26:00,16.7,14.3,29.95,WNW,296,0.0,1.0,90,0.00,,,0.00,Wunderground v.1.15,2013-02-05 06:26:00,
2013-02-05 01:31:00,16.7,14.3,29.95,WNW,287,0.0,1.0,90,0.00,,,0.00,Wunderground v.1.15,2013-02-05 06:31:00,
2013-02-05 01:36:00,16.7,14.3,29.94,WNW,301,1.0,2.0,90,0.00,,,0.00,Wunderground v.1.15,2013-02-05 06:36:00,
2013-02-05 01:43:00,16.6,14.2,29.94,WNW,299,1.0,1.0,90,0.00,,,0.00,Wunderground v.1.15,2013-02-05 06:43:00,
2013-02-05 01:48:00,16.6,14.2,29.94,WNW,299,0.0,2.0,90,0.00,,,0.00,Wunderground v.1.15,2013-02-05 06:48:00,
2013-02-05 01:54:00,16.6,14.2,29.94,WNW,298,1.0,1.0,90,0.00,,,0.00,Wunderground v.1.15,2013-02-05 06:54:00,
2013-02-05 01:59:00,16.6,14.2,29.94,NW,305,1.0,3.0,90,0.00,,,0.00,Wunderground v.1.15,2013-02-05 06:59:00,
2013-02-05 02:05:00,16.4,14.2,29.95,WNW,288,1.0,1.0,91,0.00,,,0.00,Wunderground v.1.15,2013-02-05 07:05:00,
2013-02-05 02:12:00,16.5,14.3,29.95,WNW,288,0.0,0.0,91,0.00,,,0.00,Wunderground v.1.15,2013-02-05 07:12:00,
2013-02-05 02:17:00,16.4,14.2,29.95,ENE,70,0.0,0.0,91,0.00,,,0.00,Wunderground v.1.15,2013-02-05 07:17:00,
2013-02-05 02:22:00,16.4,14.2,29.95,NW,308,1.0,2.0,91,0.00,,,0.00,Wunderground v.1.15,2013-02-05 07:22:00,
2013-02-05 02:28:00,16.4,14.2,29.95,WNW,300,1.0,2.0,91,0.00,,,0.00,Wunderground v.1.15,2013-02-05 07:28:00,
2013-02-05 02:34:00,16.5,14.3,29.95,NNW,330,0.0,0.0,91,0.00,,,0.00,Wunderground v.1.15,2013-02-05 07:34:00,
2013-02-05 02:41:00,16.5,14.3,29.95,North,354,0.0,0.0,91,0.00,,,0.00,Wunderground v.1.15,2013-02-05 07:41:00,
2013-02-05 02:46:00,16.4,14.0,29.95,WNW,302,0.0,0.0,90,0.00,,,0.00,Wunderground v.1.15,2013-02-05 07:46:00,
2013-02-05 02:51:00,16.3,13.9,29.94,NW,311,0.0,0.0,90,0.00,,,0.00,Wunderground v.1.15,2013-02-05 07:51:00,
2013-02-05 02:57:00,16.2,13.8,29.95,WNW,295,0.0,1.0,90,0.00,,,0.00,Wunderground v.1.15,2013-02-05 07:57:00,
2013-02-05 03:03:00,16.1,13.7,29.95,WNW,293,0.0,0.0,90,0.00,,,0.00,Wunderground v.1.15,2013-02-05 08:03:00,
2013-02-05 03:09:00,15.9,13.5,29.95,East,89,0.0,1.0,90,0.00,,,0.00,Wunderground v.1.15,2013-02-05 08:09:00,
2013-02-05 03:14:00,15.8,13.4,29.95,ENE,74,0.0,1.0,90,0.00,,,0.00,Wunderground v.1.15,2013-02-05 08:14:00,
2013-02-05 03:20:00,15.7,13.3,29.95,East,91,0.0,1.0,90,0.00,,,0.00,Wunderground v.1.15,2013-02-05 08:20:00,
2013-02-05 03:25:00,15.3,12.9,29.95,ENE,73,1.0,2.0,90,0.00,,,0.00,Wunderground v.1.15,2013-02-05 08:25:00,
2013-02-05 03:30:00,15.1,12.7,29.95,East,82,0.0,0.0,90,0.00,,,0.00,Wunderground v.1.15,2013-02-05 08:30:00,
2013-02-05 03:35:00,15.0,12.6,29.95,ESE,117,0.0,0.0,90,0.00,,,0.00,Wunderground v.1.15,2013-02-05 08:35:00,
2013-02-05 03:41:00,14.8,12.1,29.95,East,81,0.0,0.0,89,0.00,,,0.00,Wunderground v.1.15,2013-02-05 08:41:00,
2013-02-05 03:47:00,14.7,12.0,29.95,East,98,0.0,1.0,89,0.00,,,0.00,Wunderground v.1.15,2013-02-05 08:47:00,
2013-02-05 03:54:00,14.5,11.9,29.95,East,87,0.0,0.0,89,0.00,,,0.00,Wunderground v.1.15,2013-02-05 08:54:00,
2013-02-05 03:59:00,14.4,11.8,29.95,ENE,70,0.0,1.0,89,0.00,,,0.00,Wunderground v.1.15,2013-02-05 08:59:00,
2013-02-05 04:05:00,14.3,11.7,29.95,ENE,57,0.0,1.0,89,0.00,,,0.00,Wunderground v.1.15,2013-02-05 09:05:00,
2013-02-05 04:11:00,14.1,11.5,29.95,East,86,0.0,0.0,89,0.00,,,0.00,Wunderground v.1.15,2013-02-05 09:11:00,
2013-02-05 04:17:00,13.8,11.2,29.96,ENE,77,0.0,0.0,89,0.00,,,0.00,Wunderground v.1.15,2013-02-05 09:17:00,
2013-02-05 04:23:00,13.7,11.1,29.96,NNW,330,0.0,0.0,89,0.00,,,0.00,Wunderground v.1.15,2013-02-05 09:23:00,
2013-02-05 04:28:00,13.4,10.5,29.96,East,86,0.0,2.0,88,0.00,,,0.00,Wunderground v.1.15,2013-02-05 09:28:00,
2013-02-05 04:34:00,13.2,10.3,29.96,ENE,75,0.0,0.0,88,0.00,,,0.00,Wunderground v.1.15,2013-02-05 09:34:00,
2013-02-05 04:40:00,13.0,9.9,29.96,ESE,113,0.0,0.0,87,0.00,,,0.00,Wunderground v.1.15,2013-02-05 09:40:00,
2013-02-05 04:45:00,13.0,9.6,29.96,East,84,0.0,1.0,86,0.00,,,0.00,Wunderground v.1.15,2013-02-05 09:45:00,
2013-02-05 04:51:00,12.9,9.5,29.96,East,86,0.0,0.0,86,0.00,,,0.00,Wunderground v.1.15,2013-02-05 09:51:00,
2013-02-05 04:56:00,12.9,9.5,29.96,ENE,74,0.0,1.0,86,0.00,,,0.00,Wunderground v.1.15,2013-02-05 09:56:00,
2013-02-05 05:02:00,12.9,9.2,29.96,ENE,77,0.0,0.0,85,0.00,,,0.00,Wunderground v.1.15,2013-02-05 10:02:00,
2013-02-05 05:08:00,13.0,9.3,29.96,East,86,0.0,1.0,85,0.00,,,0.00,Wunderground v.1.15,2013-02-05 10:08:00,
2013-02-05 05:14:00,13.0,9.1,29.97,ENE,71,0.0,0.0,84,0.00,,,0.00,Wunderground v.1.15,2013-02-05 10:14:00,
2013-02-05 05:19:00,13.0,9.1,29.96,ESE,120,0.0,0.0,84,0.00,,,0.00,Wunderground v.1.15,2013-02-05 10:19:00,
2013-02-05 05:24:00,12.9,9.0,29.96,ENE,73,0.0,1.0,84,0.00,,,0.00,Wunderground v.1.15,2013-02-05 10:24:00,
2013-02-05 05:30:00,12.8,8.6,29.97,East,82,0.0,0.0,83,0.00,,,0.00,Wunderground v.1.15,2013-02-05 10:30:00,
2013-02-05 05:35:00,12.6,8.4,29.97,East,90,0.0,0.0,83,0.00,,,0.00,Wunderground v.1.15,2013-02-05 10:35:00,
2013-02-05 05:41:00,12.5,8.3,29.96,ESE,107,0.0,0.0,83,0.00,,,0.00,Wunderground v.1.15,2013-02-05 10:41:00,
2013-02-05 05:46:00,12.4,8.0,29.96,ESE,103,0.0,0.0,82,0.00,,,0.00,Wunderground v.1.15,2013-02-05 10:46:00,
2013-02-05 05:51:00,12.3,7.9,29.97,ESE,103,0.0,0.0,82,0.00,,,0.00,Wunderground v.1.15,2013-02-05 10:51:00,
2013-02-05 05:57:00,12.2,7.8,29.97,ESE,108,0.0,0.0,82,0.00,,,0.00,Wunderground v.1.15,2013-02-05 10:57:00,
2013-02-05 06:02:00,12.2,7.8,29.97,ESE,113,0.0,0.0,82,0.00,,,0.00,Wunderground v.1.15,2013-02-05 11:02:00,
2013-02-05 06:08:00,12.1,7.7,29.97,ESE,114,0.0,0.0,82,0.00,,,0.00,Wunderground v.1.15,2013-02-05 11:08:00,
2013-02-05 06:14:00,12.0,7.6,29.98,ESE,120,0.0,0.0,82,0.00,,,0.00,Wunderground v.1.15,2013-02-05 11:14:00,
2013-02-05 06:20:00,11.9,7.5,29.98,ESE,108,0.0,0.0,82,0.00,,,0.00,Wunderground v.1.15,2013-02-05 11:20:00,
2013-02-05 06:25:00,11.9,7.5,29.98,ESE,108,0.0,0.0,82,0.00,,,0.00,Wunderground v.1.15,2013-02-05 11:25:00,
2013-02-05 06:30:00,11.7,7.3,29.98,ESE,108,0.0,0.0,82,0.00,,,0.00,Wunderground v.1.15,2013-02-05 11:30:00,
2013-02-05 06:36:00,11.4,7.0,29.98,ESE,108,0.0,0.0,82,0.00,,,0.00,Wunderground v.1.15,2013-02-05 11:36:00,
2013-02-05 06:42:00,10.8,6.4,29.98,ESE,108,0.0,0.0,82,0.00,,,0.00,Wunderground v.1.15,2013-02-05 11:42:00,
2013-02-05 06:47:00,10.7,6.6,29.99,ESE,120,0.0,0.0,83,0.00,,,0.00,Wunderground v.1.15,2013-02-05 11:47:00,
2013-02-05 06:53:00,10.6,6.7,29.99,ESE,120,0.0,0.0,84,0.00,,,0.00,Wunderground v.1.15,2013-02-05 11:53:00,
2013-02-05 06:59:00,10.5,6.6,29.99,ESE,120,0.0,0.0,84,0.00,,,0.00,Wunderground v.1.15,2013-02-05 11:59:00,
2013-02-05 07:06:00,10.3,6.4,29.99,ESE,122,0.0,0.0,84,0.00,,,0.00,Wunderground v.1.15,2013-02-05 12:06:00,
2013-02-05 07:11:00,10.2,6.6,29.99,ESE,121,0.0,0.0,85,0.00,,,0.00,Wunderground v.1.15,2013-02-05 12:11:00,
2013-02-05 07:17:00,10.0,6.4,29.99,ESE,121,0.0,0.0,85,0.00,,,0.00,Wunderground v.1.15,2013-02-05 12:17:00,
2013-02-05 07:22:00,9.9,6.3,29.99,ESE,121,0.0,0.0,85,0.00,,,0.00,Wunderground v.1.15,2013-02-05 12:22:00,
2013-02-05 07:27:00,9.8,6.2,29.99,ESE,121,0.0,0.0,85,0.00,,,0.00,Wunderground v.1.15,2013-02-05 12:27:00,
2013-02-05 07:32:00,9.8,6.5,29.99,ESE,122,0.0,0.0,86,0.00,,,0.00,Wunderground v.1.15,2013-02-05 12:32:00,
2013-02-05 07:38:00,9.8,6.5,30.00,ESE,113,0.0,0.0,86,0.00,,,0.00,Wunderground v.1.15,2013-02-05 12:38:00,
2013-02-05 07:43:00,10.3,6.9,30.00,East,95,0.0,1.0,86,0.00,,,0.00,Wunderground v.1.15,2013-02-05 12:43:00,
2013-02-05 07:48:00,10.9,7.3,30.00,ESE,117,0.0,1.0,85,0.00,,,0.00,Wunderground v.1.15,2013-02-05 12:48:00,
2013-02-05 07:53:00,11.5,7.3,30.00,East,90,0.0,1.0,83,0.00,,,0.00,Wunderground v.1.15,2013-02-05 12:53:00,
2013-02-05 07:59:00,12.4,7.7,30.00,ESE,108,1.0,1.0,81,0.00,,,0.00,Wunderground v.1.15,2013-02-05 12:59:00,
2013-02-05 08:05:00,13.0,7.7,30.00,ESE,108,0.0,1.0,79,0.00,,,0.00,Wunderground v.1.15,2013-02-05 13:05:00,
2013-02-05 08:10:00,13.4,7.8,30.00,ESE,113,0.0,1.0,78,0.00,,,0.00,Wunderground v.1.15,2013-02-05 13:10:00,
2013-02-05 08:16:00,13.9,7.7,30.00,East,99,1.0,2.0,76,0.00,,,0.00,Wunderground v.1.15,2013-02-05 13:16:00,
2013-02-05 08:21:00,14.1,7.6,30.00,East,96,1.0,1.0,75,0.00,,,0.00,Wunderground v.1.15,2013-02-05 13:21:00,
2013-02-05 08:26:00,14.1,7.3,30.01,ESE,113,1.0,2.0,74,0.00,,,0.00,Wunderground v.1.15,2013-02-05 13:26:00,
2013-02-05 08:32:00,14.3,7.2,30.00,ESE,115,1.0,3.0,73,0.00,,,0.00,Wunderground v.1.15,2013-02-05 13:32:00,
2013-02-05 08:38:00,14.5,6.8,30.00,East,91,2.0,3.0,71,0.00,,,0.00,Wunderground v.1.15,2013-02-05 13:38:00,
2013-02-05 08:43:00,14.6,6.6,30.00,East,92,1.0,2.0,70,0.00,,,0.00,Wunderground v.1.15,2013-02-05 13:43:00,
2013-02-05 08:48:00,14.7,7.0,30.00,ESE,108,1.0,2.0,71,0.00,,,0.00,Wunderground v.1.15,2013-02-05 13:48:00,
2013-02-05 08:55:00,15.0,6.3,30.00,ENE,78,1.0,1.0,68,0.00,,,0.00,Wunderground v.1.15,2013-02-05 13:55:00,
2013-02-05 09:00:00,15.4,6.7,30.00,ENE,72,1.0,1.0,68,0.00,,,0.00,Wunderground v.1.15,2013-02-05 14:00:00,
2013-02-05 09:06:00,15.8,7.1,30.00,East,94,1.0,2.0,68,0.00,,,0.00,Wunderground v.1.15,2013-02-05 14:06:00,
2013-02-05 09:12:00,15.9,6.2,30.00,ESE,110,1.0,2.0,65,0.00,,,0.00,Wunderground v.1.15,2013-02-05 14:12:00,
2013-02-05 09:18:00,16.1,6.4,30.00,NE,50,2.0,3.0,65,0.00,,,0.00,Wunderground v.1.15,2013-02-05 14:18:00,
2013-02-05 09:23:00,16.0,6.3,30.00,ESE,123,2.0,4.0,65,0.00,,,0.00,Wunderground v.1.15,2013-02-05 14:23:00,
2013-02-05 09:29:00,15.9,5.5,30.00,ESE,118,3.0,7.0,63,0.00,,,0.00,Wunderground v.1.15,2013-02-05 14:29:00,
2013-02-05 09:35:00,16.0,5.6,30.00,ENE,75,4.0,4.0,63,0.00,,,0.00,Wunderground v.1.15,2013-02-05 14:35:00,
2013-02-05 09:40:00,16.2,5.8,30.00,East,101,3.0,3.0,63,0.00,,,0.00,Wunderground v.1.15,2013-02-05 14:40:00,
2013-02-05 09:46:00,16.4,6.0,30.00,East,84,3.0,4.0,63,0.00,,,0.00,Wunderground v.1.15,2013-02-05 14:46:00,
2013-02-05 09:52:00,16.8,6.4,30.00,ENE,71,2.0,2.0,63,0.00,,,0.00,Wunderground v.1.15,2013-02-05 14:52:00,
2013-02-05 09:57:00,17.0,6.2,30.00,East,101,2.0,3.0,62,0.00,,,0.00,Wunderground v.1.15,2013-02-05 14:57:00,
2013-02-05 10:02:00,17.2,6.8,30.00,East,92,2.0,3.0,63,0.00,,,0.00,Wunderground v.1.15,2013-02-05 15:02:00,
2013-02-05 10:08:00,17.8,7.3,30.00,ESE,104,2.0,3.0,63,0.00,,,0.00,Wunderground v.1.15,2013-02-05 15:08:00,
2013-02-05 10:13:00,18.1,6.9,30.00,SSE,162,2.0,2.0,61,0.00,,,0.00,Wunderground v.1.15,2013-02-05 15:13:00,
2013-02-05 10:18:00,18.2,7.3,29.99,East,85,2.0,3.0,62,0.00,,,0.00,Wunderground v.1.15,2013-02-05 15:18:00,
2013-02-05 10:24:00,18.6,7.7,29.99,ENE,74,2.0,2.0,62,0.00,,,0.00,Wunderground v.1.15,2013-02-05 15:24:00,
2013-02-05 10:29:00,19.0,7.7,29.99,SE,133,2.0,3.0,61,0.00,,,0.00,Wunderground v.1.15,2013-02-05 15:29:00,
2013-02-05 10:35:00,19.1,8.2,29.99,North,353,2.0,4.0,62,0.00,,,0.00,Wunderground v.1.15,2013-02-05 15:35:00,
2013-02-05 10:41:00,19.3,8.4,29.99,East,93,2.0,4.0,62,0.00,,,0.00,Wunderground v.1.15,2013-02-05 15:41:00,
2013-02-05 10:46:00,19.3,8.4,29.99,East,79,2.0,3.0,62,0.00,,,0.00,Wunderground v.1.15,2013-02-05 15:46:00,
2013-02-05 10:52:00,19.6,8.7,29.99,ENE,74,2.0,3.0,62,0.00,,,0.00,Wunderground v.1.15,2013-02-05 15:52:00,
2013-02-05 10:57:00,20.0,9.4,29.99,ESE,113,2.0,4.0,63,0.00,,,0.00,Wunderground v.1.15,2013-02-05 15:57:00,
2013-02-05 11:02:00,20.2,9.2,29.99,ESE,108,2.0,4.0,62,0.00,,,0.00,Wunderground v.1.15,2013-02-05 16:02:00,
2013-02-05 11:07:00,20.6,10.0,29.99,East,82,2.0,4.0,63,0.00,,,0.00,Wunderground v.1.15,2013-02-05 16:07:00,
2013-02-05 11:12:00,20.9,9.9,29.99,ENE,65,2.0,4.0,62,0.00,,,0.00,Wunderground v.1.15,2013-02-05 16:12:00,
2013-02-05 11:18:00,21.3,11.0,29.99,East,81,2.0,4.0,64,0.00,,,0.00,Wunderground v.1.15,2013-02-05 16:18:00,
2013-02-05 11:23:00,21.5,10.5,29.98,ENE,61,2.0,5.0,62,0.00,,,0.00,Wunderground v.1.15,2013-02-05 16:23:00,
2013-02-05 11:28:00,21.2,10.2,29.98,ENE,70,3.0,5.0,62,0.00,,,0.00,Wunderground v.1.15,2013-02-05 16:28:00,
2013-02-05 11:34:00,21.3,11.0,29.98,ESE,120,3.0,5.0,64,0.00,,,0.00,Wunderground v.1.15,2013-02-05 16:34:00,
2013-02-05 11:40:00,21.6,10.9,29.98,East,92,2.0,5.0,63,0.00,,,0.00,Wunderground v.1.15,2013-02-05 16:40:00,
2013-02-05 11:45:00,21.9,11.2,29.97,ENE,72,2.0,4.0,63,0.00,,,0.00,Wunderground v.1.15,2013-02-05 16:45:00,
2013-02-05 11:50:00,22.3,11.6,29.97,ENE,74,2.0,2.0,63,0.00,,,0.00,Wunderground v.1.15,2013-02-05 16:50:00,
2013-02-05 11:56:00,22.4,11.7,29.97,East,84,2.0,4.0,63,0.00,,,0.00,Wunderground v.1.15,2013-02-05 16:56:00,
2013-02-05 12:02:00,22.0,11.0,29.97,ENE,60,2.0,2.0,62,0.00,,,0.00,Wunderground v.1.15,2013-02-05 17:02:00,
2013-02-05 12:08:00,22.4,11.7,29.97,East,92,2.0,4.0,63,0.00,,,0.00,Wunderground v.1.15,2013-02-05 17:08:00,
2013-02-05 12:13:00,22.5,11.4,29.96,ENE,77,2.0,3.0,62,0.00,,,0.00,Wunderground v.1.15,2013-02-05 17:13:00,
2013-02-05 12:18:00,22.5,11.4,29.96,NW,318,2.0,3.0,62,0.00,,,0.00,Wunderground v.1.15,2013-02-05 17:18:00,
2013-02-05 12:24:00,22.7,11.6,29.95,East,98,1.0,3.0,62,0.00,,,0.00,Wunderground v.1.15,2013-02-05 17:24:00,
2013-02-05 12:30:00,22.8,11.7,29.95,ENE,59,2.0,3.0,62,0.00,,,0.00,Wunderground v.1.15,2013-02-05 17:30:00,
2013-02-05 12:36:00,23.2,12.1,29.94,East,100,1.0,2.0,62,0.00,,,0.00,Wunderground v.1.15,2013-02-05 17:36:00,
2013-02-05 12:41:00,23.3,12.2,29.94,ESE,108,1.0,1.0,62,0.00,,,0.00,Wunderground v.1.15,2013-02-05 17:41:00,
2013-02-05 12:46:00,23.5,12.0,29.94,East,88,2.0,4.0,61,0.00,,,0.00,Wunderground v.1.15,2013-02-05 17:46:00,
2013-02-05 12:51:00,23.5,12.4,29.93,NW,321,2.0,2.0,62,0.00,,,0.00,Wunderground v.1.15,2013-02-05 17:51:00,
2013-02-05 12:57:00,23.6,12.8,29.93,ENE,64,2.0,4.0,63,0.00,,,0.00,Wunderground v.1.15,2013-02-05 17:57:00,
2013-02-05 13:02:00,23.8,13.0,29.93,ESE,107,2.0,2.0,63,0.00,,,0.00,Wunderground v.1.15,2013-02-05 18:02:00,
2013-02-05 13:07:00,23.9,12.8,29.93,East,99,2.0,3.0,62,0.00,,,0.00,Wunderground v.1.15,2013-02-05 18:07:00,
2013-02-05 13:14:00,24.1,12.9,29.93,East,84,1.0,2.0,62,0.00,,,0.00,Wunderground v.1.15,2013-02-05 18:14:00,
2013-02-05 13:20:00,24.0,12.9,29.92,ENE,77,2.0,3.0,62,0.00,,,0.00,Wunderground v.1.15,2013-02-05 18:20:00,
2013-02-05 13:26:00,23.9,12.8,29.92,East,91,2.0,2.0,62,0.00,,,0.00,Wunderground v.1.15,2013-02-05 18:26:00,
2013-02-05 13:31:00,23.8,12.7,29.92,ENE,74,2.0,3.0,62,0.00,,,0.00,Wunderground v.1.15,2013-02-05 18:31:00,
2013-02-05 13:37:00,23.9,13.5,29.92,NE,52,1.0,3.0,64,0.00,,,0.00,Wunderground v.1.15,2013-02-05 18:37:00,
2013-02-05 13:42:00,23.8,12.7,29.92,East,98,1.0,1.0,62,0.00,,,0.00,Wunderground v.1.15,2013-02-05 18:42:00,
2013-02-05 13:47:00,23.8,12.7,29.91,ENE,75,1.0,1.0,62,0.00,,,0.00,Wunderground v.1.15,2013-02-05 18:47:00,
2013-02-05 13:52:00,23.9,12.4,29.91,East,82,2.0,4.0,61,0.00,,,0.00,Wunderground v.1.15,2013-02-05 18:52:00,
2013-02-05 13:58:00,23.9,12.4,29.91,ENE,70,1.0,4.0,61,0.00,,,0.00,Wunderground v.1.15,2013-02-05 18:58:00,
2013-02-05 14:04:00,23.6,12.1,29.90,ESE,114,2.0,3.0,61,0.00,,,0.00,Wunderground v.1.15,2013-02-05 19:04:00,
2013-02-05 14:09:00,23.6,12.5,29.90,ENE,65,2.0,4.0,62,0.00,,,0.00,Wunderground v.1.15,2013-02-05 19:09:00,
2013-02-05 14:14:00,23.7,12.9,29.90,ENE,63,2.0,2.0,63,0.00,,,0.00,Wunderground v.1.15,2013-02-05 19:14:00,
2013-02-05 14:19:00,24.0,13.2,29.90,East,97,1.0,2.0,63,0.00,,,0.00,Wunderground v.1.15,2013-02-05 19:19:00,
2013-02-05 14:25:00,24.1,13.3,29.90,East,81,1.0,2.0,63,0.00,,,0.00,Wunderground v.1.15,2013-02-05 19:25:00,
2013-02-05 14:32:00,23.9,13.1,29.91,NNW,346,1.0,2.0,63,0.00,,,0.00,Wunderground v.1.15,2013-02-05 19:32:00,
2013-02-05 14:37:00,24.0,12.9,29.91,East,95,1.0,2.0,62,0.00,,,0.00,Wunderground v.1.15,2013-02-05 19:37:00,
2013-02-05 14:42:00,23.9,12.8,29.91,East,79,1.0,1.0,62,0.00,,,0.00,Wunderground v.1.15,2013-02-05 19:42:00,
2013-02-05 14:48:00,24.1,12.9,29.91,East,91,1.0,2.0,62,0.00,,,0.00,Wunderground v.1.15,2013-02-05 19:48:00,
2013-02-05 14:53:00,24.1,12.9,29.91,ENE,75,1.0,2.0,62,0.00,,,0.00,Wunderground v.1.15,2013-02-05 19:53:00,
2013-02-05 14:59:00,24.4,13.2,29.91,NE,46,1.0,2.0,62,0.00,,,0.00,Wunderground v.1.15,2013-02-05 19:59:00,
2013-02-05 15:04:00,24.2,12.7,29.90,ENE,72,1.0,2.0,61,0.00,,,0.00,Wunderground v.1.15,2013-02-05 20:04:00,
2013-02-05 15:10:00,24.0,12.9,29.90,NNE,25,1.0,1.0,62,0.00,,,0.00,Wunderground v.1.15,2013-02-05 20:10:00,
2013-02-05 15:16:00,24.0,13.2,29.90,NNE,33,1.0,2.0,63,0.00,,,0.00,Wunderground v.1.15,2013-02-05 20:16:00,
2013-02-05 15:22:00,24.0,13.6,29.90,East,98,1.0,2.0,64,0.00,,,0.00,Wunderground v.1.15,2013-02-05 20:22:00,
2013-02-05 15:28:00,23.7,12.9,29.89,East,99,2.0,3.0,63,0.00,,,0.00,Wunderground v.1.15,2013-02-05 20:28:00,
2013-02-05 15:33:00,23.6,12.8,29.89,ENE,63,2.0,3.0,63,0.00,,,0.00,Wunderground v.1.15,2013-02-05 20:33:00,
2013-02-05 15:39:00,23.6,13.2,29.89,ENE,68,2.0,4.0,64,0.00,,,0.00,Wunderground v.1.15,2013-02-05 20:39:00,
2013-02-05 15:44:00,23.6,13.5,29.89,ESE,110,1.0,3.0,65,0.00,,,0.00,Wunderground v.1.15,2013-02-05 20:44:00,
2013-02-05 15:49:00,23.8,13.7,29.89,ENE,71,1.0,3.0,65,0.00,,,0.00,Wunderground v.1.15,2013-02-05 20:49:00,
2013-02-05 15:55:00,23.9,13.5,29.89,ENE,74,1.0,2.0,64,0.00,,,0.00,Wunderground v.1.15,2013-02-05 20:55:00,
2013-02-05 16:01:00,23.6,13.2,29.88,ENE,67,1.0,3.0,64,0.00,,,0.00,Wunderground v.1.15,2013-02-05 21:01:00,
2013-02-05 16:06:00,23.4,13.0,29.88,ENE,63,1.0,3.0,64,0.00,,,0.00,Wunderground v.1.15,2013-02-05 21:06:00,
2013-02-05 16:11:00,23.4,13.7,29.88,ENE,60,1.0,2.0,66,0.00,,,0.00,Wunderground v.1.15,2013-02-05 21:11:00,
2013-02-05 16:16:00,23.5,13.5,29.88,ESE,104,1.0,2.0,65,0.00,,,0.00,Wunderground v.1.15,2013-02-05 21:16:00,
2013-02-05 16:22:00,23.8,14.4,29.88,ESE,109,1.0,1.0,67,0.00,,,0.00,Wunderground v.1.15,2013-02-05 21:22:00,
2013-02-05 16:27:00,23.7,14.0,29.88,SSE,165,1.0,2.0,66,0.00,,,0.00,Wunderground v.1.15,2013-02-05 21:27:00,
2013-02-05 16:33:00,23.6,13.9,29.88,East,85,1.0,2.0,66,0.00,,,0.00,Wunderground v.1.15,2013-02-05 21:33:00,
2013-02-05 16:38:00,23.6,13.9,29.87,East,85,1.0,2.0,66,0.00,,,0.00,Wunderground v.1.15,2013-02-05 21:38:00,
2013-02-05 16:44:00,23.5,13.8,29.87,East,79,1.0,2.0,66,0.00,,,0.00,Wunderground v.1.15,2013-02-05 21:44:00,
2013-02-05 16:49:00,23.4,13.7,29.87,East,94,1.0,2.0,66,0.00,,,0.00,Wunderground v.1.15,2013-02-05 21:49:00,
2013-02-05 16:55:00,23.4,14.0,29.87,East,81,1.0,1.0,67,0.00,,,0.00,Wunderground v.1.15,2013-02-05 21:55:00,
2013-02-05 17:01:00,23.3,14.0,29.87,ESE,103,0.0,0.0,67,0.00,,,0.00,Wunderground v.1.15,2013-02-05 22:01:00,
2013-02-05 17:06:00,23.1,13.8,29.88,ENE,76,0.0,1.0,67,0.00,,,0.00,Wunderground v.1.15,2013-02-05 22:06:00,
2013-02-05 17:11:00,23.0,13.7,29.88,East,95,0.0,1.0,67,0.00,,,0.00,Wunderground v.1.15,2013-02-05 22:11:00,
2013-02-05 17:17:00,22.9,13.9,29.87,East,88,0.0,1.0,68,0.00,,,0.00,Wunderground v.1.15,2013-02-05 22:17:00,
2013-02-05 17:22:00,22.8,13.8,29.88,ESE,102,0.0,0.0,68,0.00,,,0.00,Wunderground v.1.15,2013-02-05 22:22:00,
2013-02-05 17:27:00,22.7,13.7,29.87,East,81,0.0,1.0,68,0.00,,,0.00,Wunderground v.1.15,2013-02-05 22:27:00,
2013-02-05 17:32:00,22.6,13.6,29.88,East,93,0.0,1.0,68,0.00,,,0.00,Wunderground v.1.15,2013-02-05 22:32:00,
2013-02-05 17:39:00,22.5,13.5,29.87,East,81,0.0,1.0,68,0.00,,,0.00,Wunderground v.1.15,2013-02-05 22:39:00,
2013-02-05 17:44:00,22.4,13.4,29.88,East,81,0.0,0.0,68,0.00,,,0.00,Wunderground v.1.15,2013-02-05 22:44:00,
2013-02-05 17:50:00,22.4,13.4,29.87,ESE,113,0.0,0.0,68,0.00,,,0.00,Wunderground v.1.15,2013-02-05 22:50:00,
2013-02-05 17:56:00,22.4,14.1,29.88,SE,133,0.0,0.0,70,0.00,,,0.00,Wunderground v.1.15,2013-02-05 22:56:00,
2013-02-05 18:01:00,22.4,14.1,29.88,ESE,104,0.0,0.0,70,0.00,,,0.00,Wunderground v.1.15,2013-02-05 23:01:00,
2013-02-05 18:06:00,22.3,14.0,29.88,ESE,105,0.0,0.0,70,0.00,,,0.00,Wunderground v.1.15,2013-02-05 23:06:00,
2013-02-05 18:12:00,22.3,14.0,29.88,ESE,113,0.0,0.0,70,0.00,,,0.00,Wunderground v.1.15,2013-02-05 23:12:00,
2013-02-05 18:18:00,22.3,14.3,29.87,ESE,108,0.0,1.0,71,0.00,,,0.00,Wunderground v.1.15,2013-02-05 23:18:00,
2013-02-05 18:23:00,22.3,14.0,29.87,ESE,117,1.0,1.0,70,0.00,,,0.00,Wunderground v.1.15,2013-02-05 23:23:00,
2013-02-05 18:29:00,22.2,13.9,29.87,ESE,122,1.0,1.0,70,0.00,,,0.00,Wunderground v.1.15,2013-02-05 23:29:00,
2013-02-05 18:35:00,22.1,13.8,29.88,East,91,0.0,0.0,70,0.00,,,0.00,Wunderground v.1.15,2013-02-05 23:35:00,
2013-02-05 18:40:00,22.0,13.7,29.88,East,94,0.0,0.0,70,0.00,,,0.00,Wunderground v.1.15,2013-02-05 23:40:00,
2013-02-05 18:45:00,21.7,13.4,29.88,East,99,0.0,0.0,70,0.00,,,0.00,Wunderground v.1.15,2013-02-05 23:45:00,
2013-02-05 18:51:00,21.5,13.5,29.88,East,98,0.0,0.0,71,0.00,,,0.00,Wunderground v.1.15,2013-02-05 23:51:00,
2013-02-05 18:56:00,21.3,13.7,29.87,ESE,107,0.0,0.0,72,0.00,,,0.00,Wunderground v.1.15,2013-02-05 23:56:00,
2013-02-05 19:02:00,21.2,13.9,29.87,ESE,113,0.0,1.0,73,0.00,,,0.00,Wunderground v.1.15,2013-02-06 00:02:00,
2013-02-05 19:08:00,21.3,14.0,29.87,ESE,110,0.0,1.0,73,0.00,,,0.00,Wunderground v.1.15,2013-02-06 00:08:00,
2013-02-05 19:13:00,21.4,13.8,29.87,ESE,108,0.0,1.0,72,0.00,,,0.00,Wunderground v.1.15,2013-02-06 00:13:00,
2013-02-05 19:19:00,21.5,13.9,29.87,East,101,1.0,2.0,72,0.00,,,0.00,Wunderground v.1.15,2013-02-06 00:19:00,
2013-02-05 19:24:00,21.6,13.6,29.87,East,92,1.0,1.0,71,0.00,,,0.00,Wunderground v.1.15,2013-02-06 00:24:00,
2013-02-05 19:29:00,21.5,13.5,29.87,ESE,115,1.0,1.0,71,0.00,,,0.00,Wunderground v.1.15,2013-02-06 00:29:00,
2013-02-05 19:35:00,21.3,13.4,29.87,East,94,0.0,0.0,71,0.00,,,0.00,Wunderground v.1.15,2013-02-06 00:35:00,
2013-02-05 19:41:00,21.0,13.1,29.88,East,93,0.0,0.0,71,0.00,,,0.00,Wunderground v.1.15,2013-02-06 00:41:00,
2013-02-05 19:47:00,20.5,12.9,29.88,East,93,0.0,0.0,72,0.00,,,0.00,Wunderground v.1.15,2013-02-06 00:47:00,
2013-02-05 19:52:00,20.0,12.7,29.88,East,94,0.0,0.0,73,0.00,,,0.00,Wunderground v.1.15,2013-02-06 00:52:00,
2013-02-05 19:58:00,19.6,12.7,29.88,East,94,0.0,0.0,74,0.00,,,0.00,Wunderground v.1.15,2013-02-06 00:58:00,
2013-02-05 20:03:00,19.2,12.3,29.88,ESE,113,0.0,0.0,74,0.00,,,0.00,Wunderground v.1.15,2013-02-06 01:03:00,
2013-02-05 20:08:00,18.8,12.2,29.88,ESE,122,0.0,0.0,75,0.00,,,0.00,Wunderground v.1.15,2013-02-06 01:08:00,
2013-02-05 20:13:00,18.6,12.3,29.88,ESE,122,0.0,0.0,76,0.00,,,0.00,Wunderground v.1.15,2013-02-06 01:13:00,
2013-02-05 20:19:00,18.4,12.4,29.88,ESE,122,0.0,0.0,77,0.00,,,0.00,Wunderground v.1.15,2013-02-06 01:19:00,
2013-02-05 20:25:00,18.5,12.8,29.88,ESE,122,0.0,0.0,78,0.00,,,0.00,Wunderground v.1.15,2013-02-06 01:25:00,
2013-02-05 20:30:00,18.5,12.8,29.88,ESE,114,0.0,0.0,78,0.00,,,0.00,Wunderground v.1.15,2013-02-06 01:30:00,
2013-02-05 20:35:00,18.6,12.9,29.88,ESE,115,0.0,0.0,78,0.00,,,0.00,Wunderground v.1.15,2013-02-06 01:35:00,
2013-02-05 20:41:00,18.6,12.9,29.88,ESE,114,0.0,0.0,78,0.00,,,0.00,Wunderground v.1.15,2013-02-06 01:41:00,
2013-02-05 20:46:00,18.6,13.2,29.88,ESE,115,0.0,0.0,79,0.00,,,0.00,Wunderground v.1.15,2013-02-06 01:46:00,
2013-02-05 20:52:00,18.6,13.2,29.88,ESE,114,0.0,0.0,79,0.00,,,0.00,Wunderground v.1.15,2013-02-06 01:52:00,
2013-02-05 20:58:00,18.7,13.3,29.88,ESE,114,0.0,0.0,79,0.00,,,0.00,Wunderground v.1.15,2013-02-06 01:58:00,
2013-02-05 21:03:00,18.6,13.2,29.88,ESE,115,0.0,0.0,79,0.00,,,0.00,Wunderground v.1.15,2013-02-06 02:03:00,
2013-02-05 21:08:00,18.5,13.1,29.89,ESE,115,0.0,0.0,79,0.00,,,0.00,Wunderground v.1.15,2013-02-06 02:08:00,
2013-02-05 21:14:00,18.4,13.0,29.88,ESE,115,0.0,0.0,79,0.00,,,0.00,Wunderground v.1.15,2013-02-06 02:14:00,
2013-02-05 21:20:00,18.2,12.8,29.89,ESE,115,0.0,0.0,79,0.00,,,0.00,Wunderground v.1.15,2013-02-06 02:20:00,
2013-02-05 21:26:00,18.3,12.9,29.89,ESE,115,0.0,0.0,79,0.00,,,0.00,Wunderground v.1.15,2013-02-06 02:26:00,
2013-02-05 21:31:00,18.5,13.1,29.89,ESE,114,0.0,0.0,79,0.00,,,0.00,Wunderground v.1.15,2013-02-06 02:31:00,
2013-02-05 21:36:00,18.4,13.0,29.89,ESE,115,0.0,0.0,79,0.00,,,0.00,Wunderground v.1.15,2013-02-06 02:36:00,
2013-02-05 21:42:00,18.3,12.9,29.89,ESE,115,0.0,0.0,79,0.00,,,0.00,Wunderground v.1.15,2013-02-06 02:42:00,
2013-02-05 21:48:00,18.3,12.9,29.89,ESE,115,0.0,0.0,79,0.00,,,0.00,Wunderground v.1.15,2013-02-06 02:48:00,
2013-02-05 21:55:00,18.4,13.0,29.89,ESE,122,0.0,0.0,79,0.00,,,0.00,Wunderground v.1.15,2013-02-06 02:55:00,
2013-02-05 22:01:00,18.3,13.2,29.89,ESE,121,0.0,0.0,80,0.00,,,0.00,Wunderground v.1.15,2013-02-06 03:01:00,
2013-02-05 22:06:00,18.3,13.2,29.90,ESE,122,0.0,0.0,80,0.00,,,0.00,Wunderground v.1.15,2013-02-06 03:06:00,
2013-02-05 22:12:00,18.5,13.4,29.89,ESE,117,0.0,1.0,80,0.00,,,0.00,Wunderground v.1.15,2013-02-06 03:12:00,
2013-02-05 22:17:00,19.1,13.9,29.89,SE,140,1.0,1.0,80,0.00,,,0.00,Wunderground v.1.15,2013-02-06 03:17:00,
2013-02-05 22:23:00,19.6,14.1,29.89,SE,135,1.0,1.0,79,0.00,,,0.00,Wunderground v.1.15,2013-02-06 03:23:00,
2013-02-05 22:28:00,19.6,14.1,29.89,WNW,294,0.0,2.0,79,0.00,,,0.00,Wunderground v.1.15,2013-02-06 03:28:00,
2013-02-05 22:34:00,19.5,14.0,29.89,NW,319,1.0,1.0,79,0.00,,,0.00,Wunderground v.1.15,2013-02-06 03:34:00,
2013-02-05 22:41:00,19.3,13.9,29.89,NW,319,0.0,1.0,79,0.00,,,0.00,Wunderground v.1.15,2013-02-06 03:41:00,
2013-02-05 22:46:00,19.3,14.1,29.89,NW,319,0.0,0.0,80,0.00,,,0.00,Wunderground v.1.15,2013-02-06 03:46:00,
2013-02-05 22:51:00,19.4,14.2,29.89,NW,319,0.0,0.0,80,0.00,,,0.00,Wunderground v.1.15,2013-02-06 03:51:00,
2013-02-05 22:57:00,19.4,14.2,29.89,NW,319,0.0,0.0,80,0.00,,,0.00,Wunderground v.1.15,2013-02-06 03:57:00,
2013-02-05 23:02:00,19.6,14.7,29.89,NW,319,0.0,0.0,81,0.00,,,0.00,Wunderground v.1.15,2013-02-06 04:02:00,
2013-02-05 23:08:00,19.8,14.9,29.89,NW,319,0.0,0.0,81,0.00,,,0.00,Wunderground v.1.15,2013-02-06 04:08:00,
2013-02-05 23:13:00,19.9,14.7,29.89,NW,319,0.0,0.0,80,0.00,,,0.00,Wunderground v.1.15,2013-02-06 04:13:00,
2013-02-05 23:19:00,19.9,14.7,29.89,NW,319,0.0,0.0,80,0.00,,,0.00,Wunderground v.1.15,2013-02-06 04:19:00,
2013-02-05 23:24:00,19.8,14.9,29.89,NW,319,0.0,0.0,81,0.00,,,0.00,Wunderground v.1.15,2013-02-06 04:24:00,
2013-02-05 23:31:00,19.7,14.8,29.89,NW,319,0.0,0.0,81,0.00,,,0.00,Wunderground v.1.15,2013-02-06 04:31:00,
2013-02-05 23:36:00,19.6,14.7,29.89,NW,319,0.0,0.0,81,0.00,,,0.00,Wunderground v.1.15,2013-02-06 04:36:00,
2013-02-05 23:42:00,19.4,14.5,29.89,NW,319,0.0,0.0,81,0.00,,,0.00,Wunderground v.1.15,2013-02-06 04:42:00,
2013-02-05 23:47:00,19.4,14.8,29.89,NW,319,0.0,0.0,82,0.00,,,0.00,Wunderground v.1.15,2013-02-06 04:47:00,
2013-02-05 23:53:00,19.4,14.8,29.89,NW,319,0.0,0.0,82,0.00,,,0.00,Wunderground v.1.15,2013-02-06 04:53:00,
2013-02-05 23:58:00,19.3,14.7,29.89,NW,319,0.0,0.0,82,0.00,,,0.00,Wunderground v.1.15,2013-02-06 04:58:00,